sensor_id;sensor_type;location;lat;lon;timestamp;pressure;altitude;pressure_sealevel;temperature;humidity
49393;BME280;35268;42.642;23.308;2023-08-07T00:02:21;93394.75;;;17.01;64.03
49393;BME280;35268;42.642;23.308;2023-08-07T00:04:46;93398.22;;;17.01;64.01
49393;BME280;35268;42.642;23.308;2023-08-07T00:07:11;93392.03;;;16.97;64.04
49393;BME280;35268;42.642;23.308;2023-08-07T00:09:37;93393.94;;;16.97;64.48
49393;BME280;35268;42.642;23.308;2023-08-07T00:12:02;93402.84;;;17.01;64.60
49393;BME280;35268;42.642;23.308;2023-08-07T00:14:28;93394.75;;;17.01;64.03
49393;BME280;35268;42.642;23.308;2023-08-07T00:16:54;93392.81;;;16.98;64.25
49393;BME280;35268;42.642;23.308;2023-08-07T00:19:19;93398.22;;;17.01;64.22
49393;BME280;35268;42.642;23.308;2023-08-07T00:21:45;93396.22;;;16.95;64.73
49393;BME280;35268;42.642;23.308;2023-08-07T00:24:10;93392.34;;;16.92;65.32
49393;BME280;35268;42.642;23.308;2023-08-07T00:26:35;93390.28;;;16.82;65.88
49393;BME280;35268;42.642;23.308;2023-08-07T00:29:01;93394.09;;;16.81;65.66
49393;BME280;35268;42.642;23.308;2023-08-07T00:31:26;93387.03;;;16.73;66.43
49393;BME280;35268;42.642;23.308;2023-08-07T00:33:56;93393.16;;;16.70;67.22
49393;BME280;35268;42.642;23.308;2023-08-07T00:36:21;93404.75;;;16.74;67.39
49393;BME280;35268;42.642;23.308;2023-08-07T00:38:47;93392.28;;;16.62;67.90
49393;BME280;35268;42.642;23.308;2023-08-07T00:41:12;93401.50;;;16.61;68.33
49393;BME280;35268;42.642;23.308;2023-08-07T00:43:37;93407.66;;;16.61;68.23
49393;BME280;35268;42.642;23.308;2023-08-07T00:46:03;93415.31;;;16.59;68.39
49393;BME280;35268;42.642;23.308;2023-08-07T00:48:28;93421.41;;;16.56;68.61
49393;BME280;35268;42.642;23.308;2023-08-07T00:50:55;93422.56;;;16.55;68.60
49393;BME280;35268;42.642;23.308;2023-08-07T00:53:21;93420.22;;;16.54;68.98
49393;BME280;35268;42.642;23.308;2023-08-07T00:55:46;93429.44;;;16.53;69.42
49393;BME280;35268;42.642;23.308;2023-08-07T00:58:13;93430.16;;;16.50;69.85
49393;BME280;35268;42.642;23.308;2023-08-07T01:00:38;93435.03;;;16.44;70.54
49393;BME280;35268;42.642;23.308;2023-08-07T01:03:07;93428.06;;;16.39;70.60
49393;BME280;35268;42.642;23.308;2023-08-07T01:05:33;93435.34;;;16.39;70.78
49393;BME280;35268;42.642;23.308;2023-08-07T01:07:58;93437.84;;;16.28;71.19
49393;BME280;35268;42.642;23.308;2023-08-07T01:16:07;93445.22;;;16.08;72.21
49393;BME280;35268;42.642;23.308;2023-08-07T01:18:36;93447.53;;;16.10;71.92
49393;BME280;35268;42.642;23.308;2023-08-07T01:21:03;93455.16;;;16.08;72.17
49393;BME280;35268;42.642;23.308;2023-08-07T01:26:37;93456.59;;;16.01;72.55
49393;BME280;35268;42.642;23.308;2023-08-07T01:31:38;93462.19;;;16.12;72.54
49393;BME280;35268;42.642;23.308;2023-08-07T01:34:06;93449.50;;;16.13;72.89
49393;BME280;35268;42.642;23.308;2023-08-07T01:36:34;93448.75;;;16.12;73.06
49393;BME280;35268;42.642;23.308;2023-08-07T01:39:01;93449.78;;;16.08;73.11
49393;BME280;35268;42.642;23.308;2023-08-07T01:41:27;93447.50;;;16.06;73.44
49393;BME280;35268;42.642;23.308;2023-08-07T01:43:54;93448.19;;;16.03;73.59
49393;BME280;35268;42.642;23.308;2023-08-07T01:46:20;93453.81;;;15.94;73.89
49393;BME280;35268;42.642;23.308;2023-08-07T01:48:45;93444.25;;;15.97;73.30
49393;BME280;35268;42.642;23.308;2023-08-07T01:51:11;93445.25;;;15.89;73.36
49393;BME280;35268;42.642;23.308;2023-08-07T01:53:36;93448.25;;;15.83;73.45
49393;BME280;35268;42.642;23.308;2023-08-07T01:56:02;93451.28;;;15.82;73.94
49393;BME280;35268;42.642;23.308;2023-08-07T01:58:28;93454.38;;;15.84;73.78
49393;BME280;35268;42.642;23.308;2023-08-07T02:00:53;93454.03;;;15.86;73.72
49393;BME280;35268;42.642;23.308;2023-08-07T02:03:19;93457.59;;;15.93;74.56
49393;BME280;35268;42.642;23.308;2023-08-07T02:05:45;93462.22;;;15.93;73.96
49393;BME280;35268;42.642;23.308;2023-08-07T02:08:11;93471.13;;;15.97;74.18
49393;BME280;35268;42.642;23.308;2023-08-07T02:10:37;93456.75;;;15.89;74.16
49393;BME280;35268;42.642;23.308;2023-08-07T02:13:02;93469.44;;;15.89;73.80
49393;BME280;35268;42.642;23.308;2023-08-07T02:15:28;93466.75;;;15.89;73.69
49393;BME280;35268;42.642;23.308;2023-08-07T02:17:53;93472.84;;;15.86;73.46
49393;BME280;35268;42.642;23.308;2023-08-07T02:20:19;93470.09;;;15.82;73.82
49393;BME280;35268;42.642;23.308;2023-08-07T02:22:44;93471.84;;;15.74;74.11
49393;BME280;35268;42.642;23.308;2023-08-07T02:25:10;93468.75;;;15.72;73.62
49393;BME280;35268;42.642;23.308;2023-08-07T02:27:35;93477.88;;;15.71;73.92
49393;BME280;35268;42.642;23.308;2023-08-07T02:30:00;93483.13;;;15.64;73.40
49393;BME280;35268;42.642;23.308;2023-08-07T02:32:28;93482.72;;;15.62;73.81
49393;BME280;35268;42.642;23.308;2023-08-07T02:34:54;93480.78;;;15.62;74.80
49393;BME280;35268;42.642;23.308;2023-08-07T02:37:19;93476.50;;;15.58;74.77
49393;BME280;35268;42.642;23.308;2023-08-07T02:39:46;93476.50;;;15.58;74.93
49393;BME280;35268;42.642;23.308;2023-08-07T02:42:11;93471.53;;;15.60;75.16
49393;BME280;35268;42.642;23.308;2023-08-07T02:44:37;93469.56;;;15.57;75.01
49393;BME280;35268;42.642;23.308;2023-08-07T02:47:02;93473.47;;;15.59;75.23
49393;BME280;35268;42.642;23.308;2023-08-07T02:49:28;93468.69;;;15.53;75.01
49393;BME280;35268;42.642;23.308;2023-08-07T02:51:53;93476.06;;;15.56;74.93
49393;BME280;35268;42.642;23.308;2023-08-07T02:54:19;93495.84;;;15.67;75.37
49393;BME280;35268;42.642;23.308;2023-08-07T02:56:44;93485.81;;;15.64;75.32
49393;BME280;35268;42.642;23.308;2023-08-07T02:59:10;93482.72;;;15.62;75.57
49393;BME280;35268;42.642;23.308;2023-08-07T03:01:35;93495.72;;;15.60;75.56
49393;BME280;35268;42.642;23.308;2023-08-07T03:04:00;93500.59;;;15.54;75.46
49393;BME280;35268;42.642;23.308;2023-08-07T03:06:26;93494.72;;;15.49;75.69
49393;BME280;35268;42.642;23.308;2023-08-07T03:08:51;93505.03;;;15.47;76.33
49393;BME280;35268;42.642;23.308;2023-08-07T03:11:17;93505.75;;;15.43;76.52
49393;BME280;35268;42.642;23.308;2023-08-07T03:13:42;93496.97;;;15.47;76.44
49393;BME280;35268;42.642;23.308;2023-08-07T03:16:09;93505.88;;;15.51;76.42
49393;BME280;35268;42.642;23.308;2023-08-07T03:18:34;93514.66;;;15.48;76.63
49393;BME280;35268;42.642;23.308;2023-08-07T03:21:00;93508.44;;;15.43;77.23
49393;BME280;35268;42.642;23.308;2023-08-07T03:23:27;93524.13;;;15.41;77.57
49393;BME280;35268;42.642;23.308;2023-08-07T03:26:06;93525.22;;;15.40;77.18
49393;BME280;35268;42.642;23.308;2023-08-07T03:28:32;93518.56;;;15.34;77.51
49393;BME280;35268;42.642;23.308;2023-08-07T03:30:58;93522.75;;;15.32;78.09
49393;BME280;35268;42.642;23.308;2023-08-07T03:33:24;93520.41;;;15.30;78.44
49393;BME280;35268;42.642;23.308;2023-08-07T03:35:49;93532.00;;;15.34;78.50
49393;BME280;35268;42.642;23.308;2023-08-07T03:38:15;93540.91;;;15.38;78.46
49393;BME280;35268;42.642;23.308;2023-08-07T03:40:40;93542.06;;;15.37;78.30
49393;BME280;35268;42.642;23.308;2023-08-07T03:43:06;93555.63;;;15.44;78.45
49393;BME280;35268;42.642;23.308;2023-08-07T03:45:31;93543.06;;;15.49;78.33
49393;BME280;35268;42.642;23.308;2023-08-07T03:47:57;93546.88;;;15.48;78.03
49393;BME280;35268;42.642;23.308;2023-08-07T03:50:22;93559.53;;;15.47;78.46
49393;BME280;35268;42.642;23.308;2023-08-07T03:52:47;93560.09;;;15.37;78.19
49393;BME280;35268;42.642;23.308;2023-08-07T03:55:13;93563.97;;;15.39;78.30
49393;BME280;35268;42.642;23.308;2023-08-07T03:57:38;93561.00;;;15.44;78.22
49393;BME280;35268;42.642;23.308;2023-08-07T04:00:04;93559.81;;;15.42;78.20
49393;BME280;35268;42.642;23.308;2023-08-07T04:02:30;93556.78;;;15.43;77.49
49393;BME280;35268;42.642;23.308;2023-08-07T04:04:56;93566.03;;;15.46;77.65
49393;BME280;35268;42.642;23.308;2023-08-07T04:07:21;93576.50;;;15.51;77.62
49393;BME280;35268;42.642;23.308;2023-08-07T04:09:47;93573.88;;;15.55;76.82
49393;BME280;35268;42.642;23.308;2023-08-07T04:12:13;93580.47;;;15.57;75.78
49393;BME280;35268;42.642;23.308;2023-08-07T04:14:38;93578.81;;;15.53;76.17
49393;BME280;35268;42.642;23.308;2023-08-07T04:17:04;93580.94;;;15.43;75.38
49393;BME280;35268;42.642;23.308;2023-08-07T04:19:29;93580.31;;;15.50;75.33
49393;BME280;35268;42.642;23.308;2023-08-07T04:21:55;93578.69;;;15.45;74.59
49393;BME280;35268;42.642;23.308;2023-08-07T04:24:20;93591.41;;;15.49;75.02
49393;BME280;35268;42.642;23.308;2023-08-07T04:26:46;93587.59;;;15.50;74.94
49393;BME280;35268;42.642;23.308;2023-08-07T04:29:11;93586.97;;;15.56;75.27
49393;BME280;35268;42.642;23.308;2023-08-07T04:31:37;93588.53;;;15.57;74.05
49393;BME280;35268;42.642;23.308;2023-08-07T04:34:02;93592.69;;;15.55;74.19
49393;BME280;35268;42.642;23.308;2023-08-07T04:36:28;93596.00;;;15.48;74.52
49393;BME280;35268;42.642;23.308;2023-08-07T04:38:53;93593.31;;;15.48;74.56
49393;BME280;35268;42.642;23.308;2023-08-07T04:41:20;93592.19;;;15.49;74.46
49393;BME280;35268;42.642;23.308;2023-08-07T04:43:46;93588.03;;;15.52;74.54
49393;BME280;35268;42.642;23.308;2023-08-07T04:46:13;93585.34;;;15.52;75.06
49393;BME280;35268;42.642;23.308;2023-08-07T04:48:39;93592.78;;;15.42;75.02
49393;BME280;35268;42.642;23.308;2023-08-07T04:51:05;93594.38;;;15.43;74.98
49393;BME280;35268;42.642;23.308;2023-08-07T04:53:30;93591.25;;;15.41;75.22
49393;BME280;35268;42.642;23.308;2023-08-07T04:55:56;93597.06;;;15.43;75.38
49393;BME280;35268;42.642;23.308;2023-08-07T04:58:21;93590.63;;;15.48;75.05
49393;BME280;35268;42.642;23.308;2023-08-07T05:00:47;93592.53;;;15.48;74.95
49393;BME280;35268;42.642;23.308;2023-08-07T05:03:12;93599.81;;;15.47;75.08
49393;BME280;35268;42.642;23.308;2023-08-07T05:05:38;93601.72;;;15.47;75.06
49393;BME280;35268;42.642;23.308;2023-08-07T05:08:03;93593.22;;;15.44;75.86
49393;BME280;35268;42.642;23.308;2023-08-07T05:10:29;93579.69;;;15.57;75.18
49393;BME280;35268;42.642;23.308;2023-08-07T05:12:55;93583.59;;;15.59;75.05
49393;BME280;35268;42.642;23.308;2023-08-07T05:15:24;93583.09;;;15.54;74.85
49393;BME280;35268;42.642;23.308;2023-08-07T05:17:51;93585.44;;;15.55;74.45
49393;BME280;35268;42.642;23.308;2023-08-07T05:20:16;93577.16;;;15.64;74.79
49393;BME280;35268;42.642;23.308;2023-08-07T05:22:42;93574.56;;;15.68;75.01
49393;BME280;35268;42.642;23.308;2023-08-07T05:25:08;93577.91;;;15.80;74.50
49393;BME280;35268;42.642;23.308;2023-08-07T05:27:35;93574.66;;;15.91;73.17
49393;BME280;35268;42.642;23.308;2023-08-07T05:30:00;93587.88;;;15.99;72.90
49393;BME280;35268;42.642;23.308;2023-08-07T05:32:26;93587.63;;;16.04;72.16
49393;BME280;35268;42.642;23.308;2023-08-07T05:34:51;93588.03;;;16.07;72.18
49393;BME280;35268;42.642;23.308;2023-08-07T05:37:17;93585.34;;;16.07;72.35
49393;BME280;35268;42.642;23.308;2023-08-07T05:39:42;93579.75;;;16.15;72.73
49393;BME280;35268;42.642;23.308;2023-08-07T05:42:08;93581.44;;;16.23;71.65
49393;BME280;35268;42.642;23.308;2023-08-07T05:44:35;93587.97;;;16.22;71.87
49393;BME280;35268;42.642;23.308;2023-08-07T05:47:01;93589.69;;;16.54;75.82
49393;BME280;35268;42.642;23.308;2023-08-07T05:49:26;93589.44;;;16.82;74.60
49393;BME280;35268;42.642;23.308;2023-08-07T05:51:52;93586.44;;;16.87;72.48
49393;BME280;35268;42.642;23.308;2023-08-07T05:54:18;93580.53;;;17.01;70.35
49393;BME280;35268;42.642;23.308;2023-08-07T05:56:43;93593.38;;;17.11;70.00
49393;BME280;35268;42.642;23.308;2023-08-07T05:59:09;93583.91;;;17.21;68.89
49393;BME280;35268;42.642;23.308;2023-08-07T06:01:34;93595.53;;;17.25;67.77
49393;BME280;35268;42.642;23.308;2023-08-07T06:04:02;93596.91;;;17.38;67.68
49393;BME280;35268;42.642;23.308;2023-08-07T06:06:28;93598.75;;;17.34;66.71
49393;BME280;35268;42.642;23.308;2023-08-07T06:08:54;93601.38;;;17.31;67.38
49393;BME280;35268;42.642;23.308;2023-08-07T06:11:19;93597.31;;;17.40;67.87
49393;BME280;35268;42.642;23.308;2023-08-07T06:13:45;93583.94;;;17.48;67.65
49393;BME280;35268;42.642;23.308;2023-08-07T06:16:12;93590.69;;;17.61;66.65
49393;BME280;35268;42.642;23.308;2023-08-07T06:18:37;93589.16;;;17.63;67.57
49393;BME280;35268;42.642;23.308;2023-08-07T06:21:03;93588.13;;;17.72;67.14
49393;BME280;35268;42.642;23.308;2023-08-07T06:23:32;93586.31;;;17.79;65.32
49393;BME280;35268;42.642;23.308;2023-08-07T06:25:57;93580.50;;;17.77;65.97
49393;BME280;35268;42.642;23.308;2023-08-07T06:28:23;93563.66;;;17.84;65.84
49393;BME280;35268;42.642;23.308;2023-08-07T06:30:48;93576.56;;;17.98;64.74
49393;BME280;35268;42.642;23.308;2023-08-07T06:33:14;93573.66;;;18.14;63.49
49393;BME280;35268;42.642;23.308;2023-08-07T06:35:39;93583.06;;;18.27;60.70
49393;BME280;35268;42.642;23.308;2023-08-07T06:38:05;93578.16;;;18.36;59.68
49393;BME280;35268;42.642;23.308;2023-08-07T06:40:31;93568.53;;;18.39;56.39
49393;BME280;35268;42.642;23.308;2023-08-07T06:42:56;93572.41;;;18.41;54.71
49393;BME280;35268;42.642;23.308;2023-08-07T06:45:22;93590.91;;;18.39;56.43
49393;BME280;35268;42.642;23.308;2023-08-07T06:47:47;93590.44;;;18.30;57.37
49393;BME280;35268;42.642;23.308;2023-08-07T06:50:13;93587.78;;;18.37;57.79
49393;BME280;35268;42.642;23.308;2023-08-07T06:52:39;93591.81;;;18.51;57.91
49393;BME280;35268;42.642;23.308;2023-08-07T06:55:05;93588.03;;;18.59;57.80
49393;BME280;35268;42.642;23.308;2023-08-07T06:57:30;93582.38;;;18.71;57.34
49393;BME280;35268;42.642;23.308;2023-08-07T06:59:55;93579.72;;;18.75;54.95
49393;BME280;35268;42.642;23.308;2023-08-07T07:02:21;93592.00;;;18.69;54.57
49393;BME280;35268;42.642;23.308;2023-08-07T07:04:46;93595.06;;;18.67;55.60
49393;BME280;35268;42.642;23.308;2023-08-07T07:07:12;93580.75;;;18.63;54.36
49393;BME280;35268;42.642;23.308;2023-08-07T07:09:37;93584.22;;;18.63;55.31
49393;BME280;35268;42.642;23.308;2023-08-07T07:12:03;93578.81;;;18.63;54.74
49393;BME280;35268;42.642;23.308;2023-08-07T07:14:28;93580.00;;;18.66;56.14
49393;BME280;35268;42.642;23.308;2023-08-07T07:16:54;93583.25;;;18.79;56.10
49393;BME280;35268;42.642;23.308;2023-08-07T07:19:19;93569.81;;;18.86;55.17
49393;BME280;35268;42.642;23.308;2023-08-07T07:21:45;93570.56;;;18.83;54.76
49393;BME280;35268;42.642;23.308;2023-08-07T07:24:10;93589.06;;;18.81;55.60
49393;BME280;35268;42.642;23.308;2023-08-07T07:26:36;93580.56;;;18.82;55.84
49393;BME280;35268;42.642;23.308;2023-08-07T07:29:01;93582.09;;;18.80;55.63
49393;BME280;35268;42.642;23.308;2023-08-07T07:31:27;93585.69;;;18.91;55.99
49393;BME280;35268;42.642;23.308;2023-08-07T07:33:52;93583.44;;;19.00;56.09
49393;BME280;35268;42.642;23.308;2023-08-07T07:36:19;93570.66;;;18.94;54.43
49393;BME280;35268;42.642;23.308;2023-08-07T07:38:45;93569.53;;;18.98;54.91
49393;BME280;35268;42.642;23.308;2023-08-07T07:41:12;93578.44;;;19.02;55.00
49393;BME280;35268;42.642;23.308;2023-08-07T07:43:37;93578.53;;;19.17;54.99
49393;BME280;35268;42.642;23.308;2023-08-07T07:46:03;93575.84;;;19.17;53.62
49393;BME280;35268;42.642;23.308;2023-08-07T07:48:29;93572.38;;;19.16;53.60
49393;BME280;35268;42.642;23.308;2023-08-07T07:51:01;93564.75;;;19.29;54.13
49393;BME280;35268;42.642;23.308;2023-08-07T07:53:27;93559.72;;;19.31;52.65
49393;BME280;35268;42.642;23.308;2023-08-07T07:55:53;93574.84;;;19.39;53.12
49393;BME280;35268;42.642;23.308;2023-08-07T07:58:19;93578.75;;;19.45;52.34
49393;BME280;35268;42.642;23.308;2023-08-07T08:00:45;93568.78;;;19.57;51.57
49393;BME280;35268;42.642;23.308;2023-08-07T08:03:10;93561.50;;;19.64;52.00
49393;BME280;35268;42.642;23.308;2023-08-07T08:05:37;93564.59;;;19.63;51.65
49393;BME280;35268;42.642;23.308;2023-08-07T08:08:03;93566.66;;;19.80;51.69
49393;BME280;35268;42.642;23.308;2023-08-07T08:10:28;93578.28;;;19.92;50.25
49393;BME280;35268;42.642;23.308;2023-08-07T08:12:56;93573.66;;;19.96;50.95
49393;BME280;35268;42.642;23.308;2023-08-07T08:15:22;93574.09;;;20.09;50.76
49393;BME280;35268;42.642;23.308;2023-08-07T08:17:48;93566.81;;;20.16;50.29
49393;BME280;35268;42.642;23.308;2023-08-07T08:20:14;93566.84;;;20.23;50.67
49393;BME280;35268;42.642;23.308;2023-08-07T08:22:47;93567.28;;;20.40;49.99
49393;BME280;35268;42.642;23.308;2023-08-07T08:25:12;93556.09;;;20.52;50.07
49393;BME280;35268;42.642;23.308;2023-08-07T08:27:38;93563.47;;;20.59;49.93
49393;BME280;35268;42.642;23.308;2023-08-07T08:30:04;93557.72;;;20.75;47.84
49393;BME280;35268;42.642;23.308;2023-08-07T08:32:30;93570.09;;;20.79;47.75
49393;BME280;35268;42.642;23.308;2023-08-07T08:34:55;93554.59;;;20.80;48.09
49393;BME280;35268;42.642;23.308;2023-08-07T08:37:21;93551.94;;;20.91;48.64
49393;BME280;35268;42.642;23.308;2023-08-07T08:39:47;93553.50;;;21.02;48.68
49393;BME280;35268;42.642;23.308;2023-08-07T08:42:12;93546.91;;;21.07;48.65
49393;BME280;35268;42.642;23.308;2023-08-07T08:44:39;93544.19;;;21.21;48.15
49393;BME280;35268;42.642;23.308;2023-08-07T08:47:06;93544.56;;;21.20;47.89
49393;BME280;35268;42.642;23.308;2023-08-07T08:49:36;93556.19;;;21.24;47.25
49393;BME280;35268;42.642;23.308;2023-08-07T08:52:03;93551.16;;;21.22;46.94
49393;BME280;35268;42.642;23.308;2023-08-07T08:54:30;93549.22;;;21.19;46.98
49393;BME280;35268;42.642;23.308;2023-08-07T08:56:56;93550.75;;;21.38;46.39
49393;BME280;35268;42.642;23.308;2023-08-07T08:59:24;93535.28;;;21.50;46.75
49393;BME280;35268;42.642;23.308;2023-08-07T09:01:51;93546.88;;;21.64;45.61
49393;BME280;35268;42.642;23.308;2023-08-07T09:04:18;93542.16;;;21.83;46.03
49393;BME280;35268;42.642;23.308;2023-08-07T09:06:44;93550.25;;;22.01;45.10
49393;BME280;35268;42.642;23.308;2023-08-07T09:09:11;93547.13;;;22.06;44.56
49393;BME280;35268;42.642;23.308;2023-08-07T09:11:40;93545.22;;;22.07;43.85
49393;BME280;35268;42.642;23.308;2023-08-07T09:14:06;93537.84;;;22.07;43.48
49393;BME280;35268;42.642;23.308;2023-08-07T09:16:32;93547.56;;;21.97;44.34
49393;BME280;35268;42.642;23.308;2023-08-07T09:18:58;93538.66;;;21.90;44.22
49393;BME280;35268;42.642;23.308;2023-08-07T09:21:23;93540.22;;;21.94;46.39
49393;BME280;35268;42.642;23.308;2023-08-07T09:23:49;93540.16;;;22.05;44.21
49393;BME280;35268;42.642;23.308;2023-08-07T09:26:21;93535.88;;;22.11;44.72
49393;BME280;35268;42.642;23.308;2023-08-07T09:28:47;93522.31;;;22.15;44.23
49393;BME280;35268;42.642;23.308;2023-08-07T09:31:15;93529.63;;;22.21;43.35
49393;BME280;35268;42.642;23.308;2023-08-07T09:33:40;93524.97;;;22.18;43.02
49393;BME280;35268;42.642;23.308;2023-08-07T09:36:06;93524.19;;;22.21;42.75
49393;BME280;35268;42.642;23.308;2023-08-07T09:38:31;93525.38;;;22.24;44.08
49393;BME280;35268;42.642;23.308;2023-08-07T09:40:59;93521.81;;;22.38;43.39
49393;BME280;35268;42.642;23.308;2023-08-07T09:43:24;93526.03;;;22.46;43.65
49393;BME280;35268;42.642;23.308;2023-08-07T09:45:50;93526.03;;;22.46;42.22
49393;BME280;35268;42.642;23.308;2023-08-07T09:48:23;93525.72;;;22.37;43.51
49393;BME280;35268;42.642;23.308;2023-08-07T09:50:50;93528.81;;;22.39;42.75
49393;BME280;35268;42.642;23.308;2023-08-07T09:53:15;93517.94;;;22.39;42.94
49393;BME280;35268;42.642;23.308;2023-08-07T09:55:41;93521.03;;;22.41;42.73
49393;BME280;35268;42.642;23.308;2023-08-07T09:58:08;93511.75;;;22.35;43.35
49393;BME280;35268;42.642;23.308;2023-08-07T10:00:36;93514.81;;;22.40;43.04
49393;BME280;35268;42.642;23.308;2023-08-07T10:03:03;93523.31;;;22.46;43.00
49393;BME280;35268;42.642;23.308;2023-08-07T10:05:28;93518.94;;;22.63;43.15
49393;BME280;35268;42.642;23.308;2023-08-07T10:07:54;93527.81;;;22.74;43.15
49393;BME280;35268;42.642;23.308;2023-08-07T10:10:21;93517.78;;;22.68;43.84
49393;BME280;35268;42.642;23.308;2023-08-07T10:12:47;93513.47;;;22.74;42.71
49393;BME280;35268;42.642;23.308;2023-08-07T10:15:14;93514.91;;;22.86;42.93
49393;BME280;35268;42.642;23.308;2023-08-07T10:17:40;93513.66;;;23.05;42.84
49393;BME280;35268;42.642;23.308;2023-08-07T10:20:06;93526.72;;;23.20;41.59
49393;BME280;35268;42.642;23.308;2023-08-07T10:22:34;93511.19;;;23.21;41.96
49393;BME280;35268;42.642;23.308;2023-08-07T10:25:03;93515.03;;;23.23;41.00
49393;BME280;35268;42.642;23.308;2023-08-07T10:27:31;93512.41;;;23.16;40.60
49393;BME280;35268;42.642;23.308;2023-08-07T10:29:59;93521.66;;;23.22;41.05
49393;BME280;35268;42.642;23.308;2023-08-07T10:32:26;93520.78;;;23.33;41.21
49393;BME280;35268;42.642;23.308;2023-08-07T10:34:52;93501.72;;;23.36;41.63
49393;BME280;35268;42.642;23.308;2023-08-07T10:40:05;93510.09;;;23.53;41.31
49393;BME280;35268;42.642;23.308;2023-08-07T10:42:59;93491.28;;;23.69;40.65
49393;BME280;35268;42.642;23.308;2023-08-07T10:45:27;93499.69;;;23.86;39.54
49393;BME280;35268;42.642;23.308;2023-08-07T10:48:05;93504.25;;;23.96;39.89
49393;BME280;35268;42.642;23.308;2023-08-07T10:50:33;93498.34;;;24.01;39.13
49393;BME280;35268;42.642;23.308;2023-08-07T10:53:03;93497.91;;;24.06;39.68
49393;BME280;35268;42.642;23.308;2023-08-07T10:55:43;93500.19;;;24.08;39.95
49393;BME280;35268;42.642;23.308;2023-08-07T10:58:29;93490.03;;;24.12;39.91
49393;BME280;35268;42.642;23.308;2023-08-07T11:03:59;93478.88;;;24.33;39.15
49393;BME280;35268;42.642;23.308;2023-08-07T11:06:33;93487.31;;;24.42;38.97
49393;BME280;35268;42.642;23.308;2023-08-07T11:09:03;93477.81;;;24.54;39.68
49393;BME280;35268;42.642;23.308;2023-08-07T11:11:38;93465.88;;;24.72;38.74
49393;BME280;35268;42.642;23.308;2023-08-07T11:14:14;93454.81;;;24.82;38.30
49393;BME280;35268;42.642;23.308;2023-08-07T11:16:40;93452.28;;;24.95;38.14
49393;BME280;35268;42.642;23.308;2023-08-07T11:19:06;93455.28;;;25.01;36.05
49393;BME280;35268;42.642;23.308;2023-08-07T11:21:32;93454.13;;;25.02;37.46
49393;BME280;35268;42.642;23.308;2023-08-07T11:23:58;93445.03;;;25.09;36.17
49393;BME280;35268;42.642;23.308;2023-08-07T11:26:24;93447.91;;;25.25;36.06
49393;BME280;35268;42.642;23.308;2023-08-07T11:28:54;93438.84;;;25.52;35.72
49393;BME280;35268;42.642;23.308;2023-08-07T11:31:20;93442.22;;;25.79;35.91
49393;BME280;35268;42.642;23.308;2023-08-07T11:33:46;93440.75;;;26.15;35.88
49393;BME280;35268;42.642;23.308;2023-08-07T11:36:13;93446.09;;;26.38;34.97
49393;BME280;35268;42.642;23.308;2023-08-07T11:38:40;93438.59;;;26.42;34.81
49393;BME280;35268;42.642;23.308;2023-08-07T11:41:10;93440.91;;;26.44;33.27
49393;BME280;35268;42.642;23.308;2023-08-07T11:43:36;93449.59;;;26.39;34.72
49393;BME280;35268;42.642;23.308;2023-08-07T11:46:06;93448.94;;;26.51;34.87
49393;BME280;35268;42.642;23.308;2023-08-07T11:48:35;93450.38;;;26.56;34.81
49393;BME280;35268;42.642;23.308;2023-08-07T11:51:02;93453.59;;;26.71;33.92
49393;BME280;35268;42.642;23.308;2023-08-07T11:53:31;93447.25;;;26.57;34.21
49393;BME280;35268;42.642;23.308;2023-08-07T11:55:59;93444.72;;;26.67;34.61
49393;BME280;35268;42.642;23.308;2023-08-07T11:58:26;93450.69;;;26.94;33.43
49393;BME280;35268;42.642;23.308;2023-08-07T12:00:52;93450.53;;;27.01;32.82
49393;BME280;35268;42.642;23.308;2023-08-07T12:03:29;93436.44;;;27.03;33.11
49393;BME280;35268;42.642;23.308;2023-08-07T12:05:58;93441.56;;;27.01;33.01
49393;BME280;35268;42.642;23.308;2023-08-07T12:08:38;93441.22;;;26.99;34.63
49393;BME280;35268;42.642;23.308;2023-08-07T12:11:11;93440.44;;;26.98;33.49
49393;BME280;35268;42.642;23.308;2023-08-07T12:13:44;93439.59;;;27.01;34.25
49393;BME280;35268;42.642;23.308;2023-08-07T12:16:11;93440.41;;;27.15;33.20
49393;BME280;35268;42.642;23.308;2023-08-07T12:18:46;93439.06;;;27.23;33.73
49393;BME280;35268;42.642;23.308;2023-08-07T12:21:25;93432.38;;;27.40;32.72
49393;BME280;35268;42.642;23.308;2023-08-07T12:23:54;93428.63;;;27.64;33.02
49393;BME280;35268;42.642;23.308;2023-08-07T12:26:20;93431.06;;;27.91;32.98
49393;BME280;35268;42.642;23.308;2023-08-07T12:28:45;93429.22;;;28.13;33.82
49393;BME280;35268;42.642;23.308;2023-08-07T12:31:11;93428.03;;;28.27;33.37
49393;BME280;35268;42.642;23.308;2023-08-07T12:33:36;93430.41;;;28.12;32.76
49393;BME280;35268;42.642;23.308;2023-08-07T12:36:02;93429.09;;;27.75;32.90
49393;BME280;35268;42.642;23.308;2023-08-07T12:38:28;93430.53;;;27.79;33.71
49393;BME280;35268;42.642;23.308;2023-08-07T12:40:54;93439.16;;;27.65;32.86
49393;BME280;35268;42.642;23.308;2023-08-07T12:43:20;93442.56;;;27.40;34.05
49393;BME280;35268;42.642;23.308;2023-08-07T12:45:45;93447.09;;;27.14;33.73
49393;BME280;35268;42.642;23.308;2023-08-07T12:48:11;93449.63;;;27.21;33.58
49393;BME280;35268;42.642;23.308;2023-08-07T12:50:36;93455.72;;;27.29;33.30
49393;BME280;35268;42.642;23.308;2023-08-07T12:53:02;93452.72;;;27.07;34.78
49393;BME280;35268;42.642;23.308;2023-08-07T12:55:28;93454.28;;;26.75;34.87
49393;BME280;35268;42.642;23.308;2023-08-07T12:57:54;93467.94;;;26.58;36.12
49393;BME280;35268;42.642;23.308;2023-08-07T13:00:20;93457.63;;;26.30;37.52
49393;BME280;35268;42.642;23.308;2023-08-07T13:02:47;93479.84;;;26.12;37.09
49393;BME280;35268;42.642;23.308;2023-08-07T13:05:13;93462.38;;;26.26;37.08